sensor_id;sensor_type;location;lat;lon;timestamp;pressure;altitude;pressure_sealevel;temperature;humidity
75692;BME280;64307;52.508;6.090;2022-10-16T00:01:13;100952.53;;;13.12;83.91
75692;BME280;64307;52.508;6.090;2022-10-16T00:03:39;100948.97;;;13.08;83.92
75692;BME280;64307;52.508;6.090;2022-10-16T00:06:06;100959.75;;;13.10;84.43
75692;BME280;64307;52.508;6.090;2022-10-16T00:08:32;100951.47;;;12.92;85.12
75692;BME280;64307;52.508;6.090;2022-10-16T00:11:03;100955.88;;;12.90;85.45
75692;BME280;64307;52.508;6.090;2022-10-16T00:13:30;100953.88;;;12.87;84.60
75692;BME280;64307;52.508;6.090;2022-10-16T00:15:58;100955.00;;;13.07;84.31
75692;BME280;64307;52.508;6.090;2022-10-16T00:18:24;100960.66;;;12.93;85.35
75692;BME280;64307;52.508;6.090;2022-10-16T00:20:50;100959.09;;;12.88;85.66
75692;BME280;64307;52.508;6.090;2022-10-16T00:23:15;100955.50;;;12.88;85.40
75692;BME280;64307;52.508;6.090;2022-10-16T00:25:40;100958.31;;;12.81;85.62
75692;BME280;64307;52.508;6.090;2022-10-16T00:28:06;100953.50;;;12.85;84.95
75692;BME280;64307;52.508;6.090;2022-10-16T00:30:31;100951.66;;;12.64;86.09
75692;BME280;64307;52.508;6.090;2022-10-16T00:32:56;100954.34;;;12.82;85.04
75692;BME280;64307;52.508;6.090;2022-10-16T00:35:22;100957.19;;;12.71;85.99
75692;BME280;64307;52.508;6.090;2022-10-16T00:37:47;100954.81;;;12.70;85.61
75692;BME280;64307;52.508;6.090;2022-10-16T00:40:12;100950.81;;;12.71;85.47
75692;BME280;64307;52.508;6.090;2022-10-16T00:42:38;100956.00;;;12.69;85.82
75692;BME280;64307;52.508;6.090;2022-10-16T00:45:04;100948.41;;;12.73;85.28
75692;BME280;64307;52.508;6.090;2022-10-16T00:47:34;100957.16;;;12.75;84.75
75692;BME280;64307;52.508;6.090;2022-10-16T00:52:32;100952.03;;;12.70;85.16
75692;BME280;64307;52.508;6.090;2022-10-16T00:54:58;100944.03;;;12.72;84.69
75692;BME280;64307;52.508;6.090;2022-10-16T00:57:24;100953.56;;;12.78;84.44
75692;BME280;64307;52.508;6.090;2022-10-16T00:59:50;100958.81;;;12.69;85.28
75692;BME280;64307;52.508;6.090;2022-10-16T01:02:16;100950.44;;;12.65;85.31
75692;BME280;64307;52.508;6.090;2022-10-16T01:04:45;100951.19;;;12.73;84.41
75692;BME280;64307;52.508;6.090;2022-10-16T01:10:16;100960.34;;;12.80;84.52
75692;BME280;64307;52.508;6.090;2022-10-16T01:12:48;100955.94;;;12.79;84.79
75692;BME280;64307;52.508;6.090;2022-10-16T01:20:44;100947.88;;;12.92;83.39
75692;BME280;64307;52.508;6.090;2022-10-16T01:28:28;100956.94;;;13.10;82.87
75692;BME280;64307;52.508;6.090;2022-10-16T01:30:59;100960.56;;;13.10;82.99
75692;BME280;64307;52.508;6.090;2022-10-16T01:33:35;100945.66;;;13.24;81.89
75692;BME280;64307;52.508;6.090;2022-10-16T01:36:09;100947.69;;;13.20;82.80
75692;BME280;64307;52.508;6.090;2022-10-16T01:38:39;100956.53;;;13.15;82.72
75692;BME280;64307;52.508;6.090;2022-10-16T01:41:17;100954.91;;;13.18;82.63
75692;BME280;64307;52.508;6.090;2022-10-16T01:43:49;100953.34;;;13.13;82.45
75692;BME280;64307;52.508;6.090;2022-10-16T01:46:17;100934.50;;;13.21;82.32
75692;BME280;64307;52.508;6.090;2022-10-16T01:48:43;100938.50;;;13.20;83.08
75692;BME280;64307;52.508;6.090;2022-10-16T01:51:12;100941.69;;;13.22;82.43
75692;BME280;64307;52.508;6.090;2022-10-16T01:53:39;100945.25;;;13.22;82.66
75692;BME280;64307;52.508;6.090;2022-10-16T01:56:09;100943.34;;;13.16;83.89
75692;BME280;64307;52.508;6.090;2022-10-16T01:58:41;100933.31;;;13.18;83.72
75692;BME280;64307;52.508;6.090;2022-10-16T02:01:10;100933.94;;;13.36;82.15
75692;BME280;64307;52.508;6.090;2022-10-16T02:03:38;100929.63;;;13.32;82.54
75692;BME280;64307;52.508;6.090;2022-10-16T02:06:06;100931.22;;;13.29;83.59
75692;BME280;64307;52.508;6.090;2022-10-16T02:08:32;100935.59;;;13.34;82.53
75692;BME280;64307;52.508;6.090;2022-10-16T02:10:59;100936.34;;;13.34;82.70
75692;BME280;64307;52.508;6.090;2022-10-16T02:13:55;100933.56;;;13.34;82.94
75692;BME280;64307;52.508;6.090;2022-10-16T02:16:43;100922.03;;;13.29;83.66
75692;BME280;64307;52.508;6.090;2022-10-16T02:19:09;100926.31;;;13.44;82.62
75692;BME280;64307;52.508;6.090;2022-10-16T02:21:54;100922.59;;;13.54;82.08
75692;BME280;64307;52.508;6.090;2022-10-16T02:24:31;100926.63;;;13.49;82.36
75692;BME280;64307;52.508;6.090;2022-10-16T02:27:15;100930.66;;;13.48;82.51
75692;BME280;64307;52.508;6.090;2022-10-16T02:29:47;100929.09;;;13.44;82.65
75692;BME280;64307;52.508;6.090;2022-10-16T02:32:17;100931.91;;;13.44;82.87
75692;BME280;64307;52.508;6.090;2022-10-16T02:34:45;100937.50;;;13.44;82.91
75692;BME280;64307;52.508;6.090;2022-10-16T02:37:13;100934.28;;;13.45;83.25
75692;BME280;64307;52.508;6.090;2022-10-16T02:39:40;100939.81;;;13.52;82.27
75692;BME280;64307;52.508;6.090;2022-10-16T02:42:13;100936.16;;;13.55;82.39
75692;BME280;64307;52.508;6.090;2022-10-16T02:44:38;100943.00;;;13.54;82.35
75692;BME280;64307;52.508;6.090;2022-10-16T02:47:04;100941.00;;;13.51;82.59
75692;BME280;64307;52.508;6.090;2022-10-16T02:49:29;100933.00;;;13.53;83.00
75692;BME280;64307;52.508;6.090;2022-10-16T02:51:54;100939.44;;;13.50;83.30
75692;BME280;64307;52.508;6.090;2022-10-16T02:54:20;100939.44;;;13.50;83.28
75692;BME280;64307;52.508;6.090;2022-10-16T02:56:45;100949.47;;;13.44;83.98
75692;BME280;64307;52.508;6.090;2022-10-16T02:59:10;100946.22;;;13.49;83.47
75692;BME280;64307;52.508;6.090;2022-10-16T03:01:35;100952.25;;;13.48;84.04
75692;BME280;64307;52.508;6.090;2022-10-16T03:04:01;100952.28;;;13.44;84.13
75692;BME280;64307;52.508;6.090;2022-10-16T03:06:26;100967.84;;;13.45;84.15
75692;BME280;64307;52.508;6.090;2022-10-16T03:08:51;100969.41;;;13.50;84.24
75692;BME280;64307;52.508;6.090;2022-10-16T03:11:17;100974.63;;;13.48;84.36
75692;BME280;64307;52.508;6.090;2022-10-16T03:13:42;100969.84;;;13.48;84.38
75692;BME280;64307;52.508;6.090;2022-10-16T03:16:07;100986.63;;;13.48;84.28
75692;BME280;64307;52.508;6.090;2022-10-16T03:18:32;100991.06;;;13.39;84.96
75692;BME280;64307;52.508;6.090;2022-10-16T03:20:58;100994.69;;;13.39;84.92
75692;BME280;64307;52.508;6.090;2022-10-16T03:23:23;100990.22;;;13.45;84.66
75692;BME280;64307;52.508;6.090;2022-10-16T03:25:48;100988.19;;;13.49;84.16
75692;BME280;64307;52.508;6.090;2022-10-16T03:28:14;100997.84;;;13.41;84.76
75692;BME280;64307;52.508;6.090;2022-10-16T03:30:39;100994.69;;;13.39;85.11
75692;BME280;64307;52.508;6.090;2022-10-16T03:33:05;100989.50;;;13.34;84.72
75692;BME280;64307;52.508;6.090;2022-10-16T03:35:30;100983.53;;;13.36;85.15
75692;BME280;64307;52.508;6.090;2022-10-16T03:37:55;100989.16;;;13.29;85.27
75692;BME280;64307;52.508;6.090;2022-10-16T03:40:21;100983.66;;;13.22;85.87
75692;BME280;64307;52.508;6.090;2022-10-16T03:42:46;100975.34;;;13.11;86.31
75692;BME280;64307;52.508;6.090;2022-10-16T03:45:12;100983.69;;;13.14;86.50
75692;BME280;64307;52.508;6.090;2022-10-16T03:47:37;100994.94;;;13.04;87.07
75692;BME280;64307;52.508;6.090;2022-10-16T03:50:03;100990.16;;;13.04;86.90
75692;BME280;64307;52.508;6.090;2022-10-16T03:52:29;100990.53;;;12.99;86.72
75692;BME280;64307;52.508;6.090;2022-10-16T03:54:54;100987.78;;;12.96;87.07
75692;BME280;64307;52.508;6.090;2022-10-16T03:57:20;100989.34;;;13.00;87.33
75692;BME280;64307;52.508;6.090;2022-10-16T03:59:45;100983.03;;;12.89;87.74
75692;BME280;64307;52.508;6.090;2022-10-16T04:02:11;101007.81;;;12.91;87.74
75692;BME280;64307;52.508;6.090;2022-10-16T04:04:36;101015.34;;;12.94;87.47
75692;BME280;64307;52.508;6.090;2022-10-16T04:07:01;101017.75;;;12.92;88.13
75692;BME280;64307;52.508;6.090;2022-10-16T04:09:27;101002.25;;;12.84;88.16
75692;BME280;64307;52.508;6.090;2022-10-16T04:11:52;101013.38;;;12.87;88.35
75692;BME280;64307;52.508;6.090;2022-10-16T04:14:17;101014.25;;;12.77;88.52
75692;BME280;64307;52.508;6.090;2022-10-16T04:16:43;101024.25;;;12.78;88.71
75692;BME280;64307;52.508;6.090;2022-10-16T04:19:09;101025.00;;;12.82;88.73
75692;BME280;64307;52.508;6.090;2022-10-16T04:21:34;101036.56;;;12.88;88.45
75692;BME280;64307;52.508;6.090;2022-10-16T04:24:00;101028.56;;;12.90;88.37
75692;BME280;64307;52.508;6.090;2022-10-16T04:26:25;101037.31;;;12.92;88.73
75692;BME280;64307;52.508;6.090;2022-10-16T04:28:50;101037.75;;;12.90;88.59
75692;BME280;64307;52.508;6.090;2022-10-16T04:31:15;101046.56;;;12.82;88.62
75692;BME280;64307;52.508;6.090;2022-10-16T04:33:44;101048.16;;;12.83;88.71
75692;BME280;64307;52.508;6.090;2022-10-16T04:36:09;101044.97;;;12.81;88.83
75692;BME280;64307;52.508;6.090;2022-10-16T04:38:34;101053.34;;;12.84;88.50
75692;BME280;64307;52.508;6.090;2022-10-16T04:41:00;101051.00;;;12.76;88.96
75692;BME280;64307;52.508;6.090;2022-10-16T04:43:25;101055.78;;;12.75;88.64
75692;BME280;64307;52.508;6.090;2022-10-16T04:45:51;101060.94;;;12.84;88.29
75692;BME280;64307;52.508;6.090;2022-10-16T04:48:17;101059.34;;;12.79;88.75
75692;BME280;64307;52.508;6.090;2022-10-16T04:50:43;101064.53;;;12.81;88.74
75692;BME280;64307;52.508;6.090;2022-10-16T04:53:08;101061.75;;;12.84;88.23
75692;BME280;64307;52.508;6.090;2022-10-16T04:55:34;101067.75;;;12.76;88.70
75692;BME280;64307;52.508;6.090;2022-10-16T04:57:59;101055.81;;;12.65;89.21
75692;BME280;64307;52.508;6.090;2022-10-16T05:00:24;101063.03;;;12.59;89.61
75692;BME280;64307;52.508;6.090;2022-10-16T05:02:50;101074.97;;;12.70;89.16
75692;BME280;64307;52.508;6.090;2022-10-16T05:05:16;101074.97;;;12.70;89.20
75692;BME280;64307;52.508;6.090;2022-10-16T05:07:41;101081.75;;;12.69;89.32
75692;BME280;64307;52.508;6.090;2022-10-16T05:10:06;101080.59;;;12.66;89.30
75692;BME280;64307;52.508;6.090;2022-10-16T05:12:32;101082.53;;;12.73;89.00
75692;BME280;64307;52.508;6.090;2022-10-16T05:14:57;101088.50;;;12.82;88.75
75692;BME280;64307;52.508;6.090;2022-10-16T05:17:24;101086.91;;;12.77;89.11
75692;BME280;64307;52.508;6.090;2022-10-16T05:19:50;101090.06;;;12.83;88.62
75692;BME280;64307;52.508;6.090;2022-10-16T05:22:15;101084.47;;;12.83;88.57
75692;BME280;64307;52.508;6.090;2022-10-16T05:24:40;101088.50;;;12.75;88.52
75692;BME280;64307;52.508;6.090;2022-10-16T05:27:06;101091.72;;;12.80;88.95
75692;BME280;64307;52.508;6.090;2022-10-16T05:29:31;101096.47;;;12.83;88.84
75692;BME280;64307;52.508;6.090;2022-10-16T05:31:57;101098.47;;;12.83;88.54
75692;BME280;64307;52.508;6.090;2022-10-16T05:34:22;101095.31;;;12.77;88.76
75692;BME280;64307;52.508;6.090;2022-10-16T05:36:47;101102.44;;;12.85;88.37
75692;BME280;64307;52.508;6.090;2022-10-16T05:39:14;101114.06;;;12.77;89.05
75692;BME280;64307;52.508;6.090;2022-10-16T05:41:40;101105.25;;;12.85;88.07
75692;BME280;64307;52.508;6.090;2022-10-16T05:44:05;101106.88;;;12.79;88.31
75692;BME280;64307;52.508;6.090;2022-10-16T05:46:31;101098.53;;;12.72;88.81
75692;BME280;64307;52.508;6.090;2022-10-16T05:48:57;101115.69;;;12.71;88.66
75692;BME280;64307;52.508;6.090;2022-10-16T05:51:22;101110.88;;;12.75;88.56
75692;BME280;64307;52.508;6.090;2022-10-16T05:53:48;101118.84;;;12.83;88.34
75692;BME280;64307;52.508;6.090;2022-10-16T05:56:14;101117.25;;;12.82;88.59
75692;BME280;64307;52.508;6.090;2022-10-16T05:58:40;101125.19;;;12.87;88.06
75692;BME280;64307;52.508;6.090;2022-10-16T06:01:09;101123.56;;;12.93;88.04
75692;BME280;64307;52.508;6.090;2022-10-16T06:03:35;101133.16;;;12.96;87.86
75692;BME280;64307;52.508;6.090;2022-10-16T06:06:16;101133.59;;;12.91;88.39
75692;BME280;64307;52.508;6.090;2022-10-16T06:08:43;101147.16;;;12.92;88.24
75692;BME280;64307;52.508;6.090;2022-10-16T06:11:12;101149.13;;;12.99;87.64
75692;BME280;64307;52.508;6.090;2022-10-16T06:13:37;101150.38;;;12.91;88.28
75692;BME280;64307;52.508;6.090;2022-10-16T06:16:04;101150.78;;;12.86;88.68
75692;BME280;64307;52.508;6.090;2022-10-16T06:18:30;101141.97;;;12.94;88.14
75692;BME280;64307;52.508;6.090;2022-10-16T06:20:56;101162.34;;;12.95;88.30
75692;BME280;64307;52.508;6.090;2022-10-16T06:23:23;101155.91;;;12.98;87.54
75692;BME280;64307;52.508;6.090;2022-10-16T06:25:48;101165.09;;;13.02;88.04
75692;BME280;64307;52.508;6.090;2022-10-16T06:28:14;101162.72;;;13.04;87.96
75692;BME280;64307;52.508;6.090;2022-10-16T06:30:40;101164.66;;;13.18;87.23
75692;BME280;64307;52.508;6.090;2022-10-16T06:33:05;101171.06;;;13.11;87.71
75692;BME280;64307;52.508;6.090;2022-10-16T06:35:32;101171.47;;;13.13;87.17
75692;BME280;64307;52.508;6.090;2022-10-16T06:37:57;101185.81;;;13.19;87.39
75692;BME280;64307;52.508;6.090;2022-10-16T06:40:23;101187.75;;;13.29;86.85
75692;BME280;64307;52.508;6.090;2022-10-16T06:42:48;101184.16;;;13.32;86.66
75692;BME280;64307;52.508;6.090;2022-10-16T06:45:14;101190.50;;;13.39;86.23
75692;BME280;64307;52.508;6.090;2022-10-16T06:47:39;101198.47;;;13.48;86.28
75692;BME280;64307;52.508;6.090;2022-10-16T06:50:05;101197.69;;;13.44;86.91
75692;BME280;64307;52.508;6.090;2022-10-16T06:52:32;101204.88;;;13.48;87.30
75692;BME280;64307;52.508;6.090;2022-10-16T06:54:58;101216.84;;;13.49;86.84
75692;BME280;64307;52.508;6.090;2022-10-16T06:57:23;101221.19;;;13.57;86.51
75692;BME280;64307;52.508;6.090;2022-10-16T06:59:48;101244.41;;;13.54;86.55
75692;BME280;64307;52.508;6.090;2022-10-16T07:02:14;101232.78;;;13.55;86.25
75692;BME280;64307;52.508;6.090;2022-10-16T07:04:39;101251.59;;;13.55;86.29
75692;BME280;64307;52.508;6.090;2022-10-16T07:07:04;101248.00;;;13.51;86.39
75692;BME280;64307;52.508;6.090;2022-10-16T07:09:30;101242.81;;;13.49;86.55
75692;BME280;64307;52.508;6.090;2022-10-16T07:11:55;101232.00;;;13.55;86.17
75692;BME280;64307;52.508;6.090;2022-10-16T07:14:21;101242.81;;;13.49;86.02
75692;BME280;64307;52.508;6.090;2022-10-16T07:16:47;101236.09;;;13.40;87.17
75692;BME280;64307;52.508;6.090;2022-10-16T07:19:13;101221.31;;;13.36;87.66
75692;BME280;64307;52.508;6.090;2022-10-16T07:21:41;101216.13;;;13.31;88.06
75692;BME280;64307;52.508;6.090;2022-10-16T07:24:10;101221.66;;;13.48;88.13
75692;BME280;64307;52.508;6.090;2022-10-16T07:26:36;101227.88;;;13.73;87.05
75692;BME280;64307;52.508;6.090;2022-10-16T07:29:04;101232.84;;;14.10;86.53
75692;BME280;64307;52.508;6.090;2022-10-16T07:31:29;101240.72;;;16.97;75.55
75692;BME280;64307;52.508;6.090;2022-10-16T07:33:54;101246.97;;;16.85;73.98
75692;BME280;64307;52.508;6.090;2022-10-16T07:36:21;101253.19;;;15.43;79.36
75692;BME280;64307;52.508;6.090;2022-10-16T07:38:46;101270.50;;;15.01;81.81
75692;BME280;64307;52.508;6.090;2022-10-16T07:41:14;101275.06;;;14.85;82.62
75692;BME280;64307;52.508;6.090;2022-10-16T07:43:40;101287.06;;;14.89;82.42
75692;BME280;64307;52.508;6.090;2022-10-16T07:46:09;101294.66;;;15.25;80.80
75692;BME280;64307;52.508;6.090;2022-10-16T07:48:35;101285.22;;;15.49;79.75
75692;BME280;64307;52.508;6.090;2022-10-16T07:51:06;101288.31;;;15.21;80.74
75692;BME280;64307;52.508;6.090;2022-10-16T07:53:32;101292.69;;;15.90;78.61
75692;BME280;64307;52.508;6.090;2022-10-16T07:56:03;101296.47;;;16.60;76.24
75692;BME280;64307;52.508;6.090;2022-10-16T07:58:29;101296.84;;;16.08;77.14
75692;BME280;64307;52.508;6.090;2022-10-16T08:00:55;101317.50;;;15.95;77.70
75692;BME280;64307;52.508;6.090;2022-10-16T08:03:20;101321.91;;;15.96;76.63
75692;BME280;64307;52.508;6.090;2022-10-16T08:05:45;101330.38;;;17.61;71.75
75692;BME280;64307;52.508;6.090;2022-10-16T08:08:13;101336.00;;;16.49;75.02
75692;BME280;64307;52.508;6.090;2022-10-16T08:10:39;101337.63;;;15.60;76.77
75692;BME280;64307;52.508;6.090;2022-10-16T08:13:05;101338.94;;;15.51;79.32
75692;BME280;64307;52.508;6.090;2022-10-16T08:15:30;101345.31;;;15.52;78.89
75692;BME280;64307;52.508;6.090;2022-10-16T08:18:03;101337.84;;;15.38;78.08
75692;BME280;64307;52.508;6.090;2022-10-16T08:20:30;101335.06;;;16.02;76.46
75692;BME280;64307;52.508;6.090;2022-10-16T08:22:56;101345.13;;;16.57;73.79
75692;BME280;64307;52.508;6.090;2022-10-16T08:25:23;101344.25;;;18.27;66.19
75692;BME280;64307;52.508;6.090;2022-10-16T08:27:48;101353.34;;;19.31;64.02
75692;BME280;64307;52.508;6.090;2022-10-16T08:30:15;101347.81;;;24.02;49.50
75692;BME280;64307;52.508;6.090;2022-10-16T08:32:41;101348.06;;;26.84;42.67
75692;BME280;64307;52.508;6.090;2022-10-16T08:35:11;101343.44;;;26.87;40.57
75692;BME280;64307;52.508;6.090;2022-10-16T08:37:37;101357.72;;;27.87;37.94
75692;BME280;64307;52.508;6.090;2022-10-16T08:40:07;101371.41;;;28.29;37.23
75692;BME280;64307;52.508;6.090;2022-10-16T08:43:47;101372.72;;;28.59;35.73
75692;BME280;64307;52.508;6.090;2022-10-16T08:46:19;101369.91;;;29.07;34.82
75692;BME280;64307;52.508;6.090;2022-10-16T08:48:53;101373.00;;;29.46;34.24
75692;BME280;64307;52.508;6.090;2022-10-16T08:51:24;101369.19;;;28.44;35.26
75692;BME280;64307;52.508;6.090;2022-10-16T08:54:28;101384.03;;;29.58;34.05
75692;BME280;64307;52.508;6.090;2022-10-16T08:56:50;101381.66;;;29.57;33.36
75692;BME280;64307;52.508;6.090;2022-10-16T08:59:16;101378.81;;;28.41;34.90
75692;BME280;64307;52.508;6.090;2022-10-16T09:01:45;101393.16;;;29.09;33.70
75692;BME280;64307;52.508;6.090;2022-10-16T09:07:12;101404.03;;;28.94;33.81
75692;BME280;64307;52.508;6.090;2022-10-16T09:15:36;101405.41;;;31.79;29.63
75692;BME280;64307;52.508;6.090;2022-10-16T09:18:25;101415.88;;;29.12;33.18
75692;BME280;64307;52.508;6.090;2022-10-16T09:21:09;101417.63;;;28.68;33.60
75692;BME280;64307;52.508;6.090;2022-10-16T09:23:38;101421.34;;;29.53;32.61
75692;BME280;64307;52.508;6.090;2022-10-16T09:26:04;101415.00;;;30.08;32.16
75692;BME280;64307;52.508;6.090;2022-10-16T09:28:34;101428.16;;;30.64;31.32
75692;BME280;64307;52.508;6.090;2022-10-16T09:30:59;101431.81;;;29.67;32.29
75692;BME280;64307;52.508;6.090;2022-10-16T09:33:29;101435.94;;;29.49;32.47
75692;BME280;64307;52.508;6.090;2022-10-16T09:35:58;101434.50;;;28.09;35.02
75692;BME280;64307;52.508;6.090;2022-10-16T09:38:34;101430.56;;;29.20;33.28
75692;BME280;64307;52.508;6.090;2022-10-16T09:41:19;101448.44;;;30.05;31.76
75692;BME280;64307;52.508;6.090;2022-10-16T09:43:53;101443.59;;;30.55;29.67
75692;BME280;64307;52.508;6.090;2022-10-16T09:46:26;101438.63;;;29.16;32.02
75692;BME280;64307;52.508;6.090;2022-10-16T09:48:57;101439.50;;;29.86;31.23
75692;BME280;64307;52.508;6.090;2022-10-16T09:51:24;101446.97;;;30.82;30.45
75692;BME280;64307;52.508;6.090;2022-10-16T09:54:15;101455.69;;;28.17;34.89
75692;BME280;64307;52.508;6.090;2022-10-16T09:56:40;101446.97;;;30.37;30.43
75692;BME280;64307;52.508;6.090;2022-10-16T09:59:12;101462.03;;;30.16;30.77
75692;BME280;64307;52.508;6.090;2022-10-16T10:01:40;101459.44;;;30.07;31.11
75692;BME280;64307;52.508;6.090;2022-10-16T10:04:07;101457.34;;;30.18;30.70
75692;BME280;64307;52.508;6.090;2022-10-16T10:06:52;101448.56;;;30.49;31.20
75692;BME280;64307;52.508;6.090;2022-10-16T10:09:29;101445.44;;;30.97;29.25
75692;BME280;64307;52.508;6.090;2022-10-16T10:11:58;101451.94;;;27.30;35.70
75692;BME280;64307;52.508;6.090;2022-10-16T10:17:01;101461.78;;;25.03;41.05
75692;BME280;64307;52.508;6.090;2022-10-16T10:19:27;101467.47;;;26.07;37.78
75692;BME280;64307;52.508;6.090;2022-10-16T10:21:52;101465.34;;;26.90;36.56
75692;BME280;64307;52.508;6.090;2022-10-16T10:24:19;101467.81;;;23.55;44.81
75692;BME280;64307;52.508;6.090;2022-10-16T10:26:50;101466.22;;;23.45;44.74
75692;BME280;64307;52.508;6.090;2022-10-16T10:29:34;101481.53;;;25.96;39.06
75692;BME280;64307;52.508;6.090;2022-10-16T10:32:26;101488.25;;;24.44;42.11
75692;BME280;64307;52.508;6.090;2022-10-16T10:43:45;101483.97;;;24.30;41.90
75692;BME280;64307;52.508;6.090;2022-10-16T10:46:28;101492.91;;;23.47;42.81
75692;BME280;64307;52.508;6.090;2022-10-16T10:57:27;101515.28;;;21.76;49.80
75692;BME280;64307;52.508;6.090;2022-10-16T11:02:58;101511.47;;;23.21;45.22
75692;BME280;64307;52.508;6.090;2022-10-16T11:05:40;101510.94;;;21.96;46.92
75692;BME280;64307;52.508;6.090;2022-10-16T11:08:21;101506.56;;;21.70;47.81
75692;BME280;64307;52.508;6.090;2022-10-16T11:10:54;101512.47;;;21.63;48.52
75692;BME280;64307;52.508;6.090;2022-10-16T11:13:30;101524.63;;;21.51;47.19
75692;BME280;64307;52.508;6.090;2022-10-16T11:16:00;101531.69;;;20.55;50.49
75692;BME280;64307;52.508;6.090;2022-10-16T11:18:38;101531.00;;;21.05;49.37
75692;BME280;64307;52.508;6.090;2022-10-16T11:21:10;101524.75;;;20.44;49.32
75692;BME280;64307;52.508;6.090;2022-10-16T11:23:51;101529.78;;;20.52;49.24
75692;BME280;64307;52.508;6.090;2022-10-16T11:26:22;101540.13;;;20.42;50.15
75692;BME280;64307;52.508;6.090;2022-10-16T11:28:51;101542.56;;;20.28;50.47
75692;BME280;64307;52.508;6.090;2022-10-16T11:31:38;101539.03;;;19.79;51.43
75692;BME280;64307;52.508;6.090;2022-10-16T11:34:24;101542.06;;;20.87;49.23
75692;BME280;64307;52.508;6.090;2022-10-16T11:36:53;101549.31;;;20.88;48.73
75692;BME280;64307;52.508;6.090;2022-10-16T11:39:25;101541.63;;;20.88;48.69
75692;BME280;64307;52.508;6.090;2022-10-16T11:42:01;101542.38;;;20.35;49.10
75692;BME280;64307;52.508;6.090;2022-10-16T11:47:33;101543.91;;;20.93;48.41
75692;BME280;64307;52.508;6.090;2022-10-16T11:50:18;101554.25;;;20.14;49.12
75692;BME280;64307;52.508;6.090;2022-10-16T11:52:58;101547.69;;;19.88;50.77
75692;BME280;64307;52.508;6.090;2022-10-16T11:55:31;101550.16;;;19.54;51.95
75692;BME280;64307;52.508;6.090;2022-10-16T11:58:03;101545.00;;;19.17;53.00
75692;BME280;64307;52.508;6.090;2022-10-16T12:03:35;101555.16;;;20.27;50.74
75692;BME280;64307;52.508;6.090;2022-10-16T12:08:53;101563.03;;;19.87;50.49
75692;BME280;64307;52.508;6.090;2022-10-16T12:13:51;101565.94;;;20.45;48.76
75692;BME280;64307;52.508;6.090;2022-10-16T12:18:43;101564.22;;;20.34;48.58
75692;BME280;64307;52.508;6.090;2022-10-16T12:21:11;101571.78;;;20.25;49.92
75692;BME280;64307;52.508;6.090;2022-10-16T12:23:47;101574.16;;;20.26;49.00
75692;BME280;64307;52.508;6.090;2022-10-16T12:26:13;101571.63;;;19.84;48.99
75692;BME280;64307;52.508;6.090;2022-10-16T12:28:39;101568.25;;;20.05;48.61
75692;BME280;64307;52.508;6.090;2022-10-16T12:31:07;101569.38;;;20.07;49.42
75692;BME280;64307;52.508;6.090;2022-10-16T12:33:56;101575.31;;;20.13;49.73
75692;BME280;64307;52.508;6.090;2022-10-16T12:36:34;101583.88;;;19.93;50.03
75692;BME280;64307;52.508;6.090;2022-10-16T12:39:00;101573.09;;;20.04;49.77
75692;BME280;64307;52.508;6.090;2022-10-16T12:41:34;101582.81;;;20.03;50.36
75692;BME280;64307;52.508;6.090;2022-10-16T12:44:01;101579.22;;;19.71;50.33
75692;BME280;64307;52.508;6.090;2022-10-16T12:49:21;101588.41;;;19.75;51.03
75692;BME280;64307;52.508;6.090;2022-10-16T12:51:47;101593.81;;;19.53;50.93
75692;BME280;64307;52.508;6.090;2022-10-16T12:54:36;101598.59;;;19.01;49.60
75692;BME280;64307;52.508;6.090;2022-10-16T13:00:02;101604.91;;;19.44;52.87
75692;BME280;64307;52.508;6.090;2022-10-16T13:07:59;101603.81;;;18.83;52.40
75692;BME280;64307;52.508;6.090;2022-10-16T13:10:33;101608.31;;;18.80;52.91
75692;BME280;64307;52.508;6.090;2022-10-16T13:16:12;101600.69;;;18.97;53.85
75692;BME280;64307;52.508;6.090;2022-10-16T13:24:19;101608.41;;;18.76;53.16
75692;BME280;64307;52.508;6.090;2022-10-16T13:27:07;101606.59;;;18.66;53.31
75692;BME280;64307;52.508;6.090;2022-10-16T13:29:35;101614.97;;;18.50;54.06
75692;BME280;64307;52.508;6.090;2022-10-16T13:32:10;101604.03;;;18.33;53.72
75692;BME280;64307;52.508;6.090;2022-10-16T13:34:48;101603.94;;;18.59;54.20
75692;BME280;64307;52.508;6.090;2022-10-16T13:37:18;101611.78;;;18.68;53.70
75692;BME280;64307;52.508;6.090;2022-10-16T13:39:44;101610.22;;;18.67;54.13
75692;BME280;64307;52.508;6.090;2022-10-16T13:42:13;101608.31;;;18.60;54.33
75692;BME280;64307;52.508;6.090;2022-10-16T13:44:43;101603.84;;;18.63;53.59
75692;BME280;64307;52.508;6.090;2022-10-16T13:47:18;101609.25;;;18.54;52.93
75692;BME280;64307;52.508;6.090;2022-10-16T13:49:44;101619.31;;;18.55;53.32
75692;BME280;64307;52.508;6.090;2022-10-16T13:52:20;101616.06;;;18.56;52.45
75692;BME280;64307;52.508;6.090;2022-10-16T13:54:46;101619.25;;;18.58;52.06
75692;BME280;64307;52.508;6.090;2022-10-16T13:57:16;101626.34;;;18.66;53.90
75692;BME280;64307;52.508;6.090;2022-10-16T13:59:41;101622.00;;;18.62;53.14
75692;BME280;64307;52.508;6.090;2022-10-16T14:02:28;101629.81;;;18.54;53.38
75692;BME280;64307;52.508;6.090;2022-10-16T14:04:57;101635.09;;;18.52;53.33
75692;BME280;64307;52.508;6.090;2022-10-16T14:07:28;101632.34;;;18.49;53.65
75692;BME280;64307;52.508;6.090;2022-10-16T14:09:54;101642.69;;;18.55;53.78
75692;BME280;64307;52.508;6.090;2022-10-16T14:12:21;101637.47;;;18.54;53.02
75692;BME280;64307;52.508;6.090;2022-10-16T14:14:49;101638.75;;;18.49;52.23
75692;BME280;64307;52.508;6.090;2022-10-16T14:17:27;101647.91;;;18.34;53.51
75692;BME280;64307;52.508;6.090;2022-10-16T14:19:56;101649.69;;;18.24;53.94
75692;BME280;64307;52.508;6.090;2022-10-16T14:22:28;101657.66;;;18.29;55.01